Time;durP1;ratioP1;P1;durP2;ratioP2;P2;SDS_P1;SDS_P2;PMS_P1;PMS_P2;Temp;Humidity;BMP_temperature;BMP_pressure;BME280_temperature;BME280_humidity;BME280_pressure;Samples;Min_cycle;Max_cycle;Signal;HPM_P1;HPM_P2
2024/04/02 00:01:32;;;;;;;2.83;1.93;;;;;;;-146.04;100.00;56920.13;4948634;29;20205;-73
2024/04/02 00:04:11;;;;;;;3.77;2.40;;;;;;;-146.04;100.00;56920.13;4936566;29;20197;-72
2024/04/02 00:06:36;;;;;;;3.50;1.60;;;;;;;-146.04;100.00;56920.13;4927916;29;21123;-73
2024/04/02 00:09:01;;;;;;;3.40;1.53;;;;;;;-146.04;100.00;56920.13;4940703;28;20213;-72
2024/04/02 00:11:27;;;;;;;2.20;1.83;;;;;;;-146.04;100.00;56920.13;4927175;29;20217;-73
2024/04/02 00:13:52;;;;;;;2.30;1.53;;;;;;;-146.04;100.00;56920.13;4926555;29;20201;-73
2024/04/02 00:16:17;;;;;;;1.70;1.60;;;;;;;-146.04;100.00;56920.13;4941617;28;20185;-73
2024/04/02 00:18:43;;;;;;;2.27;1.93;;;;;;;-146.04;100.00;56920.13;4928527;29;20214;-72
2024/04/02 00:21:08;;;;;;;7.07;2.00;;;;;;;-146.04;100.00;56920.13;4951281;28;20201;-74
2024/04/02 00:23:33;;;;;;;6.70;1.63;;;;;;;-146.04;100.00;56920.13;4948177;29;20178;-74
2024/04/02 00:25:59;;;;;;;1.77;1.37;;;;;;;-146.04;100.00;56920.13;4956261;28;20186;-74
2024/04/02 00:28:25;;;;;;;2.97;1.67;;;;;;;-146.04;100.00;56920.13;4952704;29;20221;-73
2024/04/02 00:30:50;;;;;;;2.03;1.30;;;;;;;-146.04;100.00;56920.13;4947458;28;20276;-73
2024/04/02 00:33:15;;;;;;;4.77;1.37;;;;;;;-146.04;100.00;56920.13;4933669;29;20209;-73
2024/04/02 00:35:41;;;;;;;2.70;1.13;;;;;;;-146.04;100.00;56920.13;4931574;29;20570;-73
2024/04/02 00:38:06;;;;;;;2.17;1.70;;;;;;;-146.04;100.00;56920.13;4930309;29;20209;-73
2024/04/02 00:40:31;;;;;;;2.37;1.80;;;;;;;-146.04;100.00;56920.13;4928244;29;20280;-74
2024/04/02 00:43:05;;;;;;;2.23;1.47;;;;;;;-146.04;100.00;56920.13;4931347;29;20231;-72
2024/04/02 00:45:30;;;;;;;2.77;1.70;;;;;;;-146.04;100.00;56920.13;4932638;29;20189;-72
2024/04/02 00:47:56;;;;;;;2.07;1.63;;;;;;;-146.04;100.00;56920.13;4933810;29;20214;-72
2024/04/02 00:50:21;;;;;;;2.40;1.40;;;;;;;-146.04;100.00;56920.13;4931019;29;20201;-72
2024/04/02 00:52:47;;;;;;;2.10;1.50;;;;;;;-146.04;100.00;56920.13;4934084;29;20217;-74
2024/04/02 00:55:12;;;;;;;2.90;2.00;;;;;;;-146.04;100.00;56920.13;4931341;29;20232;-73
2024/04/02 00:57:38;;;;;;;4.83;2.07;;;;;;;-146.04;100.00;56920.13;4929404;29;20206;-73
2024/04/02 01:00:04;;;;;;;2.57;1.57;;;;;;;-146.04;100.00;56920.13;4925082;29;20333;-73
2024/04/02 01:02:29;;;;;;;3.10;1.80;;;;;;;-146.04;100.00;56920.13;4923151;29;20273;-74
2024/04/02 01:04:54;;;;;;;4.30;1.90;;;;;;;-146.04;100.00;56920.13;4925419;29;20200;-73
2024/04/02 01:07:20;;;;;;;2.93;2.13;;;;;;;-146.04;100.00;56920.13;4923482;29;20673;-72
2024/04/02 01:09:46;;;;;;;2.70;1.50;;;;;;;-146.04;100.00;56920.13;4924780;29;20204;-69
2024/04/02 01:12:11;;;;;;;2.80;2.00;;;;;;;-146.04;100.00;56920.13;4929058;29;20230;-71
2024/04/02 01:14:40;;;;;;;3.77;2.00;;;;;;;-146.04;100.00;56920.13;4927205;29;20637;-71
2024/04/02 01:17:06;;;;;;;2.90;2.30;;;;;;;-146.04;100.00;56920.13;4928808;29;20626;-71
2024/04/02 01:19:31;;;;;;;2.60;1.93;;;;;;;-146.04;100.00;56920.13;4931673;29;20190;-69
2024/04/02 01:21:57;;;;;;;4.57;2.30;;;;;;;-146.04;100.00;56920.13;4931359;29;20440;-70
2024/04/02 01:24:23;;;;;;;3.13;2.10;;;;;;;-146.04;100.00;56920.13;4934007;29;20684;-70
2024/04/02 01:26:48;;;;;;;4.33;2.33;;;;;;;-146.04;100.00;56920.13;4927573;29;20198;-71
2024/04/02 01:29:13;;;;;;;3.27;2.40;;;;;;;-146.04;100.00;56920.13;4929485;29;20218;-71
2024/04/02 01:31:39;;;;;;;2.53;2.33;;;;;;;-146.04;100.00;56920.13;4928707;29;20181;-70
2024/04/02 01:34:05;;;;;;;2.77;1.83;;;;;;;-146.04;100.00;56920.13;4930040;29;20689;-71
2024/04/02 01:36:30;;;;;;;5.23;3.00;;;;;;;-146.04;100.00;56920.13;4932030;29;20197;-70
2024/04/02 01:38:56;;;;;;;4.27;2.40;;;;;;;-146.04;100.00;56920.13;4937447;29;20209;-70
2024/04/02 01:41:21;;;;;;;7.83;2.80;;;;;;;-146.04;100.00;56920.13;4936132;29;20272;-70
2024/04/02 01:43:46;;;;;;;7.53;3.07;;;;;;;-146.04;100.00;56920.13;4936564;29;20193;-69
2024/04/02 01:46:13;;;;;;;2.97;2.63;;;;;;;-146.04;100.00;56920.13;4936870;29;20193;-70
2024/04/02 01:48:38;;;;;;;4.70;3.00;;;;;;;-146.04;100.00;56920.13;4936429;29;20212;-71
2024/04/02 01:51:04;;;;;;;3.73;2.87;;;;;;;-146.04;100.00;56920.13;4937106;29;20186;-70
2024/04/02 01:53:29;;;;;;;3.73;2.60;;;;;;;-146.04;100.00;56920.13;4931418;29;20221;-71
2024/04/02 01:55:54;;;;;;;2.80;2.60;;;;;;;-146.04;100.00;56920.13;4929929;29;20189;-70
2024/04/02 01:58:20;;;;;;;9.67;3.10;;;;;;;-146.04;100.00;56920.13;4932174;29;20209;-71
2024/04/02 02:00:45;;;;;;;4.30;3.30;;;;;;;-146.04;100.00;56920.13;4934671;29;20236;-71
2024/04/02 02:03:11;;;;;;;4.80;3.43;;;;;;;-146.04;100.00;56920.13;4932650;29;20182;-70
2024/04/02 02:05:36;;;;;;;4.50;2.97;;;;;;;-146.04;100.00;56920.13;4934248;29;20273;-71
2024/04/02 02:08:02;;;;;;;4.43;3.50;;;;;;;-146.04;100.00;56920.13;4934419;29;20248;-70
2024/04/02 02:10:27;;;;;;;8.30;3.30;;;;;;;-146.04;100.00;56920.13;4935774;29;20194;-71
2024/04/02 02:12:52;;;;;;;4.97;3.53;;;;;;;-146.04;100.00;56920.13;4930853;29;20736;-71
2024/04/02 02:15:18;;;;;;;7.13;3.60;;;;;;;-146.04;100.00;56920.13;4930982;29;20194;-70
2024/04/02 02:17:47;;;;;;;6.07;3.70;;;;;;;-146.04;100.00;56920.13;4933656;29;20228;-70
2024/04/02 02:20:13;;;;;;;5.23;3.63;;;;;;;-146.04;100.00;56920.13;4935523;29;20435;-71
2024/04/02 02:22:39;;;;;;;4.03;3.13;;;;;;;-146.04;100.00;56920.13;4936239;29;20185;-70
2024/04/02 02:25:04;;;;;;;5.57;3.50;;;;;;;-146.04;100.00;56920.13;4948448;28;20185;-70
2024/04/02 02:27:29;;;;;;;6.33;3.70;;;;;;;-146.04;100.00;56920.13;4931477;29;20284;-70
2024/04/02 02:29:55;;;;;;;5.03;4.43;;;;;;;-146.04;100.00;56920.13;4932699;29;20194;-70
2024/04/02 02:32:20;;;;;;;7.17;3.80;;;;;;;-146.04;100.00;56920.13;4932881;29;20205;-70
2024/04/02 02:34:45;;;;;;;4.07;3.43;;;;;;;-146.04;100.00;56920.13;4942920;29;20193;-71
2024/04/02 02:37:11;;;;;;;4.57;3.60;;;;;;;-146.04;100.00;56920.13;4941397;29;20217;-71
2024/04/02 02:39:36;;;;;;;6.03;4.47;;;;;;;-146.04;100.00;56920.13;4944610;29;20210;-70
2024/04/02 02:42:02;;;;;;;5.83;3.77;;;;;;;-146.04;100.00;56920.13;4943700;29;20217;-71
2024/04/02 02:44:27;;;;;;;4.00;3.60;;;;;;;-146.04;100.00;56920.13;4955423;28;20350;-71
2024/04/02 02:46:53;;;;;;;8.73;4.03;;;;;;;-146.04;100.00;56920.13;4940249;29;20194;-70
2024/04/02 02:49:18;;;;;;;6.47;4.13;;;;;;;-146.04;100.00;56920.13;4944622;28;20209;-71
2024/04/02 02:51:43;;;;;;;8.37;3.90;;;;;;;-146.04;100.00;56920.13;4931784;29;20258;-70
2024/04/02 02:54:08;;;;;;;4.70;3.87;;;;;;;-146.04;100.00;56920.13;4934945;29;20793;-70
2024/04/02 02:56:34;;;;;;;7.23;3.93;;;;;;;-146.04;100.00;56920.13;4933142;29;20666;-70
2024/04/02 02:58:59;;;;;;;6.40;4.03;;;;;;;-146.04;100.00;56920.13;4935047;29;20707;-70
2024/04/02 03:01:24;;;;;;;7.37;3.90;;;;;;;-146.04;100.00;56920.13;4934762;29;20682;-70
2024/04/02 03:03:53;;;;;;;7.40;4.63;;;;;;;-146.04;100.00;56920.13;4933083;29;20276;-70
2024/04/02 03:06:19;;;;;;;6.47;4.20;;;;;;;-146.04;100.00;56920.13;4927664;29;20182;-69
2024/04/02 03:08:44;;;;;;;5.80;3.90;;;;;;;-146.04;100.00;56920.13;4932080;29;20217;-70
2024/04/02 03:11:09;;;;;;;7.03;3.83;;;;;;;-146.04;100.00;56920.13;4934553;29;20410;-70
2024/04/02 03:13:35;;;;;;;4.63;3.40;;;;;;;-146.04;100.00;56920.13;4949155;28;20222;-70
2024/04/02 03:16:03;;;;;;;9.83;4.20;;;;;;;-146.04;100.00;56920.13;4933139;29;20248;-70
2024/04/02 03:18:29;;;;;;;5.03;3.63;;;;;;;-146.04;100.00;56920.13;4932759;29;20263;-70
2024/04/02 03:20:54;;;;;;;5.20;3.77;;;;;;;-146.04;100.00;56920.13;4933292;29;20700;-70
2024/04/02 03:23:20;;;;;;;6.57;3.67;;;;;;;-146.04;100.00;56920.13;4933320;29;20579;-70
2024/04/02 03:25:55;;;;;;;5.60;3.63;;;;;;;-146.04;100.00;56920.13;4945586;28;20273;-71
2024/04/02 03:28:20;;;;;;;4.20;3.27;;;;;;;-146.04;100.00;56920.13;4930934;29;20272;-71
2024/04/02 03:30:46;;;;;;;4.20;3.43;;;;;;;-146.04;100.00;56920.13;4933940;29;20411;-70
2024/04/02 03:33:12;;;;;;;3.90;3.50;;;;;;;-146.04;100.00;56920.13;4931430;29;20732;-70
2024/04/02 03:35:37;;;;;;;4.87;3.27;;;;;;;-146.04;100.00;56920.13;4933801;29;20197;-70
2024/04/02 03:38:03;;;;;;;5.00;3.07;;;;;;;-146.04;100.00;56920.13;4934054;29;20296;-70
2024/04/02 03:40:30;;;;;;;7.40;4.13;;;;;;;-146.04;100.00;56920.13;4933447;29;20194;-70
2024/04/02 03:42:55;;;;;;;8.00;3.63;;;;;;;-146.04;100.00;56920.13;4934307;29;20192;-69
2024/04/02 03:45:21;;;;;;;5.00;3.67;;;;;;;-146.04;100.00;56920.13;4928875;29;20178;-70
2024/04/02 03:47:46;;;;;;;8.47;4.50;;;;;;;-146.04;100.00;56920.13;4929942;29;20213;-71
2024/04/02 03:50:11;;;;;;;4.80;4.30;;;;;;;-146.04;100.00;56920.13;4931909;29;20190;-70
2024/04/02 03:52:37;;;;;;;6.33;4.00;;;;;;;-146.04;100.00;56920.13;4931777;29;20220;-70
2024/04/02 03:55:02;;;;;;;4.63;3.30;;;;;;;-146.04;100.00;56920.13;4932317;29;20264;-70
2024/04/02 03:57:28;;;;;;;10.33;4.30;;;;;;;-146.04;100.00;56920.13;4934221;29;20305;-69
2024/04/02 03:59:53;;;;;;;6.87;3.80;;;;;;;-146.04;100.00;56920.13;4932509;29;20602;-70
2024/04/02 04:02:18;;;;;;;4.90;3.40;;;;;;;-146.04;100.00;56920.13;4932515;29;20185;-70
2024/04/02 04:04:44;;;;;;;5.60;3.27;;;;;;;-146.04;100.00;56920.13;4931816;29;20200;-70
2024/04/02 04:07:09;;;;;;;4.73;3.13;;;;;;;-146.04;100.00;56920.13;4931794;29;20206;-70
2024/04/02 04:09:34;;;;;;;5.63;3.70;;;;;;;-146.04;100.00;56920.13;4933956;29;20244;-69
2024/04/02 04:11:59;;;;;;;5.37;3.43;;;;;;;-146.04;100.00;56920.13;4931819;29;20208;-70
2024/04/02 04:14:25;;;;;;;8.53;4.10;;;;;;;-146.04;100.00;56920.13;4933561;29;20206;-70
2024/04/02 04:16:50;;;;;;;5.50;3.93;;;;;;;-146.04;100.00;56920.13;4931514;29;20950;-69
2024/04/02 04:19:15;;;;;;;5.23;3.60;;;;;;;-146.04;100.00;56920.13;4934719;29;20245;-70
2024/04/02 04:21:41;;;;;;;4.83;2.83;;;;;;;-146.04;100.00;56920.13;4930460;29;20222;-69
2024/04/02 04:24:06;;;;;;;5.93;3.27;;;;;;;-146.04;100.00;56920.13;4930645;29;20215;-70
2024/04/02 04:26:32;;;;;;;5.57;3.30;;;;;;;-146.04;100.00;56920.13;4931946;29;20195;-69
2024/04/02 04:28:57;;;;;;;8.43;3.97;;;;;;;-146.04;100.00;56920.13;4932301;29;20213;-70
2024/04/02 04:31:22;;;;;;;8.73;3.73;;;;;;;-146.04;100.00;56920.13;4941159;28;20197;-70
2024/04/02 04:33:48;;;;;;;7.50;3.53;;;;;;;-146.04;100.00;56920.13;4932472;29;20213;-70
2024/04/02 04:36:13;;;;;;;6.60;4.30;;;;;;;-146.04;100.00;56920.13;4928047;29;20245;-70
2024/04/02 04:38:39;;;;;;;8.30;3.57;;;;;;;-146.04;100.00;56920.13;4929944;29;20752;-70
2024/04/02 04:41:04;;;;;;;4.67;3.13;;;;;;;-146.04;100.00;56920.13;4930885;29;20190;-70
2024/04/02 04:43:29;;;;;;;3.67;3.03;;;;;;;-146.04;100.00;56920.13;4932626;29;20558;-70
2024/04/02 04:46:01;;;;;;;6.57;3.93;;;;;;;-146.04;100.00;56920.13;4927412;29;20736;-69
2024/04/02 04:48:26;;;;;;;7.57;3.30;;;;;;;-146.04;100.00;56920.13;4925245;29;20697;-73
2024/04/02 04:50:55;;;;;;;5.80;3.37;;;;;;;-146.04;100.00;56920.13;4931848;29;20185;-73
2024/04/02 04:53:21;;;;;;;4.97;3.23;;;;;;;-146.04;100.00;56920.13;4937668;29;20211;-72
2024/04/02 04:55:46;;;;;;;4.37;3.17;;;;;;;-146.04;100.00;56920.13;4932927;29;20197;-73
2024/04/02 04:58:11;;;;;;;3.77;3.13;;;;;;;-146.04;100.00;56920.13;4930464;29;20224;-73
2024/04/02 05:00:36;;;;;;;6.63;3.43;;;;;;;-146.04;100.00;56920.13;4942971;28;20202;-72
2024/04/02 05:03:02;;;;;;;4.67;3.47;;;;;;;-146.04;100.00;56920.13;4931846;29;20193;-73
2024/04/02 05:05:27;;;;;;;6.83;3.50;;;;;;;-146.04;100.00;56920.13;4927690;29;20575;-73
2024/04/02 05:08:13;;;;;;;9.17;3.60;;;;;;;-146.04;100.00;56920.13;4920460;29;20415;-72
2024/04/02 05:10:39;;;;;;;4.90;2.80;;;;;;;-146.04;100.00;56920.13;4927062;29;20213;-72
2024/04/02 05:13:06;;;;;;;7.67;4.50;;;;;;;-146.04;100.00;56920.13;4929275;29;20240;-73
2024/04/02 05:15:31;;;;;;;4.50;3.33;;;;;;;-146.04;100.00;56920.13;4925937;29;20649;-72
2024/04/02 05:17:57;;;;;;;4.97;3.20;;;;;;;-146.04;100.00;56920.13;4940383;28;20264;-73
2024/04/02 05:20:22;;;;;;;7.27;4.10;;;;;;;-146.04;100.00;56920.13;4925711;29;20292;-74
2024/04/02 05:22:47;;;;;;;7.20;3.30;;;;;;;-146.04;100.00;56920.13;4924263;29;20209;-74
2024/04/02 05:25:13;;;;;;;7.50;3.17;;;;;;;-146.04;100.00;56920.13;4919810;29;20202;-73
2024/04/02 05:27:38;;;;;;;8.37;3.27;;;;;;;-146.04;100.00;56920.13;4924277;29;20721;-73
2024/04/02 05:30:03;;;;;;;6.87;3.13;;;;;;;-146.04;100.00;56920.13;4924621;29;20688;-74
2024/04/02 05:32:29;;;;;;;5.03;3.30;;;;;;;-146.04;100.00;56920.13;4925285;29;20217;-73
2024/04/02 05:34:54;;;;;;;6.60;3.23;;;;;;;-146.04;100.00;56920.13;4926268;29;20194;-72
2024/04/02 05:37:20;;;;;;;6.60;2.90;;;;;;;-146.04;100.00;56920.13;4925973;29;20296;-73
2024/04/02 05:39:48;;;;;;;6.47;3.37;;;;;;;-146.04;100.00;56920.13;4924714;29;20190;-72
2024/04/02 05:42:14;;;;;;;4.40;2.70;;;;;;;-146.04;100.00;56920.13;4925381;29;20221;-71
2024/04/02 05:44:39;;;;;;;6.30;2.93;;;;;;;-146.04;100.00;56920.13;4949830;28;20193;-72
2024/04/02 05:47:05;;;;;;;8.47;2.83;;;;;;;-146.04;100.00;56920.13;4950878;29;20185;-73
2024/04/02 05:49:30;;;;;;;7.80;2.53;;;;;;;-146.04;100.00;56920.13;4951340;29;20205;-73
2024/04/02 05:51:55;;;;;;;9.23;2.87;;;;;;;-146.04;100.00;56920.13;4944696;29;20198;-73
2024/04/02 05:54:21;;;;;;;8.30;3.20;;;;;;;-146.04;100.00;56920.13;4927284;29;20252;-73
2024/04/02 05:56:46;;;;;;;5.27;2.90;;;;;;;-146.04;100.00;56920.13;4925539;29;20198;-73
2024/04/02 05:59:11;;;;;;;7.67;2.50;;;;;;;-146.04;100.00;56920.13;4929211;29;20213;-72
2024/04/02 06:01:37;;;;;;;4.70;2.67;;;;;;;-146.04;100.00;56920.13;4924148;29;20555;-73
2024/04/02 06:04:03;;;;;;;8.03;3.67;;;;;;;-146.04;100.00;56920.13;4937789;28;20272;-72
2024/04/02 06:06:29;;;;;;;5.00;2.67;;;;;;;-146.04;100.00;56920.13;4926273;29;20217;-73
2024/04/02 06:08:55;;;;;;;6.10;2.50;;;;;;;-146.04;100.00;56920.13;4940057;28;20692;-73
2024/04/02 06:11:20;;;;;;;5.83;2.63;;;;;;;-146.04;100.00;56920.13;4929991;29;20193;-74
2024/04/02 06:13:46;;;;;;;4.07;2.03;;;;;;;-146.04;100.00;56920.13;4942490;29;20225;-72
2024/04/02 06:16:11;;;;;;;6.87;2.07;;;;;;;-146.04;100.00;56920.13;4949331;29;20189;-73
2024/04/02 06:18:36;;;;;;;4.77;2.47;;;;;;;-146.04;100.00;56920.13;4948072;29;22655;-73
2024/04/02 06:21:02;;;;;;;6.03;2.40;;;;;;;-146.04;100.00;56920.13;4947181;29;20186;-72
2024/04/02 06:23:27;;;;;;;5.30;2.50;;;;;;;-146.04;100.00;56920.13;4930921;29;20192;-73
2024/04/02 06:25:52;;;;;;;5.70;2.40;;;;;;;-146.04;100.00;56920.13;4929143;29;20185;-72
2024/04/02 06:28:18;;;;;;;6.67;2.37;;;;;;;-146.04;100.00;56920.13;4928402;29;20609;-72
2024/04/02 06:30:43;;;;;;;6.37;2.97;;;;;;;-146.04;100.00;56920.13;4927955;29;20711;-72
2024/04/02 06:33:09;;;;;;;8.03;2.60;;;;;;;-146.04;100.00;56920.13;4928230;29;20213;-72
2024/04/02 06:35:34;;;;;;;4.80;2.50;;;;;;;-146.04;100.00;56920.13;4927869;29;20265;-72
2024/04/02 06:37:59;;;;;;;6.77;2.67;;;;;;;-146.04;100.00;56920.13;4925006;29;20256;-72
2024/04/02 06:40:25;;;;;;;9.40;2.40;;;;;;;-146.04;100.00;56920.13;4926791;29;20204;-72
2024/04/02 06:42:50;;;;;;;6.47;2.50;;;;;;;-146.04;100.00;56920.13;4927233;29;20289;-72
2024/04/02 06:45:15;;;;;;;7.20;2.57;;;;;;;-146.04;100.00;56920.13;4927317;29;20229;-72
2024/04/02 06:47:41;;;;;;;4.97;3.00;;;;;;;-146.04;100.00;56920.13;4928367;29;20308;-72
2024/04/02 06:50:06;;;;;;;6.93;3.00;;;;;;;-146.04;100.00;56920.13;4927831;29;20224;-72
2024/04/02 06:52:32;;;;;;;4.33;2.43;;;;;;;-146.04;100.00;56920.13;4926098;29;20227;-73
2024/04/02 06:54:58;;;;;;;3.53;2.27;;;;;;;-146.04;100.00;56920.13;4930185;29;20572;-72
2024/04/02 06:57:23;;;;;;;7.03;2.63;;;;;;;-146.04;100.00;56920.13;4923845;29;20213;-73
2024/04/02 06:59:48;;;;;;;11.10;2.80;;;;;;;-146.04;100.00;56920.13;4928410;29;20205;-72
2024/04/02 07:02:14;;;;;;;6.63;2.17;;;;;;;-146.04;100.00;56920.13;4928016;29;20193;-72
2024/04/02 07:04:39;;;;;;;9.10;2.30;;;;;;;-146.04;100.00;56920.13;4933336;29;20193;-72
2024/04/02 07:07:05;;;;;;;5.17;2.40;;;;;;;-146.04;100.00;56920.13;4933621;29;20190;-72
2024/04/02 07:09:31;;;;;;;4.10;2.50;;;;;;;-146.04;100.00;56920.13;4935997;29;20198;-73
2024/04/02 07:11:56;;;;;;;7.43;3.23;;;;;;;-146.04;100.00;56920.13;4935036;29;20245;-72
2024/04/02 07:14:21;;;;;;;8.00;3.20;;;;;;;-146.04;100.00;56920.13;4933767;29;20600;-71
2024/04/02 07:16:47;;;;;;;7.23;2.60;;;;;;;-146.04;100.00;56920.13;4931572;29;20193;-73
2024/04/02 07:19:12;;;;;;;6.83;3.03;;;;;;;-146.04;100.00;56920.13;4928980;29;20206;-72
2024/04/02 07:21:37;;;;;;;7.50;3.13;;;;;;;-146.04;100.00;56920.13;4930706;29;20198;-73
2024/04/02 07:24:03;;;;;;;6.03;2.23;;;;;;;-146.04;100.00;56920.13;4925797;28;20189;-74
2024/04/02 07:26:28;;;;;;;6.93;2.77;;;;;;;-146.04;100.00;56920.13;4924268;28;20198;-73
2024/04/02 07:28:53;;;;;;;8.47;2.33;;;;;;;-146.04;100.00;56920.13;4915882;28;20213;-73
2024/04/02 07:31:24;;;;;;;7.33;2.67;;;;;;;-146.04;100.00;56920.13;4916157;29;20197;-73
2024/04/02 07:33:49;;;;;;;8.27;2.90;;;;;;;-146.04;100.00;56920.13;4917985;29;20221;-73
2024/04/02 07:36:14;;;;;;;7.40;3.28;;;;;;;-146.04;100.00;56920.13;4919752;28;20580;-72
2024/04/02 07:38:40;;;;;;;11.20;2.87;;;;;;;-146.04;100.00;56920.13;4916243;29;20464;-72
2024/04/02 07:41:05;;;;;;;5.93;2.85;;;;;;;-146.04;100.00;56920.13;4914916;29;20208;-72
2024/04/02 07:43:30;;;;;;;11.38;3.33;;;;;;;-146.04;100.00;56920.13;4917362;29;21531;-72
2024/04/02 07:45:56;;;;;;;7.18;2.83;;;;;;;-146.04;100.00;56920.13;4930548;28;20199;-72
2024/04/02 07:48:21;;;;;;;7.47;3.47;;;;;;;-146.04;100.00;56920.13;4921658;29;20594;-73
2024/04/02 07:50:47;;;;;;;15.55;3.22;;;;;;;-146.04;100.00;56920.13;4930237;28;20393;-73
2024/04/02 07:53:12;;;;;;;5.63;3.00;;;;;;;-146.04;100.00;56920.13;4912632;29;20610;-73
2024/04/02 07:55:37;;;;;;;9.48;3.83;;;;;;;-146.04;100.00;56920.13;4913767;29;20278;-73
2024/04/02 07:58:03;;;;;;;16.67;4.32;;;;;;;-146.04;100.00;56920.13;4915581;29;20585;-73
2024/04/02 08:00:29;;;;;;;8.50;3.50;;;;;;;-146.04;100.00;56920.13;4915037;29;20220;-73
2024/04/02 08:02:54;;;;;;;6.32;3.63;;;;;;;-146.04;100.00;56920.13;4929765;28;20818;-73
2024/04/02 08:05:20;;;;;;;12.90;4.70;;;;;;;-146.04;100.00;56920.13;4931335;28;20193;-73
2024/04/02 08:07:46;;;;;;;8.55;3.72;;;;;;;-146.04;100.00;56920.13;4914269;29;20227;-73
2024/04/02 08:10:14;;;;;;;9.68;3.90;;;;;;;-146.04;100.00;56920.13;4916529;29;20192;-73
2024/04/02 08:12:40;;;;;;;10.75;4.55;;;;;;;-146.04;100.00;56920.13;4915486;29;20237;-73
2024/04/02 08:15:06;;;;;;;9.68;4.15;;;;;;;-146.04;100.00;56920.13;4916174;29;20236;-74
2024/04/02 08:17:32;;;;;;;14.75;3.80;;;;;;;-146.04;100.00;56920.13;4921238;28;20688;-73
2024/04/02 08:19:57;;;;;;;6.65;4.22;;;;;;;-146.04;100.00;56920.13;4916880;28;20197;-73
2024/04/02 08:22:23;;;;;;;9.93;3.53;;;;;;;-146.04;100.00;56920.13;4915658;29;20220;-73
2024/04/02 08:24:49;;;;;;;11.15;3.85;;;;;;;-146.04;100.00;56920.13;4915037;29;20202;-73
2024/04/02 08:27:14;;;;;;;8.20;3.38;;;;;;;-146.04;100.00;56920.13;4915243;29;20182;-75
2024/04/02 08:29:40;;;;;;;8.88;3.65;;;;;;;-146.04;100.00;56920.13;4913857;29;20212;-73
2024/04/02 08:32:05;;;;;;;11.07;4.05;;;;;;;-146.04;100.00;56920.13;4918785;29;20196;-74
2024/04/02 08:34:31;;;;;;;13.00;3.90;;;;;;;-146.04;100.00;56920.13;4920576;29;20727;-73
2024/04/02 08:36:58;;;;;;;7.75;3.50;;;;;;;-146.04;100.00;56920.13;4913767;29;20209;-74
2024/04/02 08:39:23;;;;;;;8.10;3.60;;;;;;;-146.04;100.00;56920.13;4932880;28;20198;-71
2024/04/02 08:41:53;;;;;;;9.07;3.53;;;;;;;-146.04;100.00;56920.13;4915953;29;20186;-72
2024/04/02 08:44:18;;;;;;;6.63;3.33;;;;;;;-146.04;100.00;56920.13;4924852;28;20194;-72
2024/04/02 08:46:45;;;;;;;5.80;2.58;;;;;;;-146.04;100.00;56920.13;4915479;29;20575;-72
2024/04/02 08:49:10;;;;;;;10.18;3.42;;;;;;;-146.04;100.00;56920.13;4926036;29;20596;-72
2024/04/02 08:51:36;;;;;;;10.18;3.28;;;;;;;-146.04;100.00;56920.13;4925315;29;20182;-71
2024/04/02 08:54:01;;;;;;;5.10;2.08;;;;;;;-146.04;100.00;56920.13;4926144;29;20307;-73
2024/04/02 08:56:26;;;;;;;11.43;3.20;;;;;;;-146.04;100.00;56920.13;4914980;29;20224;-73
2024/04/02 08:58:54;;;;;;;12.55;3.33;;;;;;;-146.04;100.00;56920.13;4915767;29;20716;-73
2024/04/02 09:01:19;;;;;;;7.82;3.03;;;;;;;-146.04;100.00;56920.13;4923921;29;20198;-73
2024/04/02 09:03:46;;;;;;;13.40;3.35;;;;;;;-146.04;100.00;56920.13;4914587;29;20193;-73
2024/04/02 09:06:11;;;;;;;6.72;2.58;;;;;;;-146.04;100.00;56920.13;4915496;29;20247;-73
2024/04/02 09:08:46;;;;;;;5.68;2.08;;;;;;;-146.04;100.00;56920.13;4913716;29;21362;-73
2024/04/02 09:11:13;;;;;;;8.63;2.47;;;;;;;-146.04;100.00;56920.13;4911781;29;20201;-73
2024/04/02 09:13:41;;;;;;;5.18;2.55;;;;;;;-146.04;100.00;56920.13;4909922;29;20264;-73
2024/04/02 09:16:07;;;;;;;7.47;3.03;;;;;;;-146.04;100.00;56920.13;4918658;29;20679;-72
2024/04/02 09:18:37;;;;;;;5.88;2.40;;;;;;;-146.04;100.00;56920.13;4914142;29;20213;-73
2024/04/02 09:21:03;;;;;;;6.85;2.17;;;;;;;-146.04;100.00;56920.13;4919102;29;20197;-73
2024/04/02 09:23:29;;;;;;;6.93;3.22;;;;;;;-146.04;100.00;56920.13;4928529;28;20322;-74
2024/04/02 09:25:56;;;;;;;9.88;2.90;;;;;;;-146.04;100.00;56920.13;4921469;29;20286;-74
2024/04/02 09:28:21;;;;;;;11.02;3.17;;;;;;;-146.04;100.00;56920.13;4914425;29;20573;-74
2024/04/02 09:30:47;;;;;;;5.47;3.08;;;;;;;-146.04;100.00;56920.13;4916531;29;20192;-73
2024/04/02 09:33:15;;;;;;;6.05;2.70;;;;;;;-146.04;100.00;56920.13;4925831;28;20693;-73
2024/04/02 09:36:06;;;;;;;12.88;3.05;;;;;;;-146.04;100.00;56920.13;4915334;29;20197;-72
2024/04/02 09:38:35;;;;;;;8.10;2.95;;;;;;;-146.04;100.00;56920.13;4907906;29;20213;-72
2024/04/02 09:41:02;;;;;;;8.85;2.78;;;;;;;-146.04;100.00;56920.13;4914174;29;20195;-73
2024/04/02 09:43:30;;;;;;;8.60;3.05;;;;;;;-146.04;100.00;56920.13;4915038;29;20985;-72
2024/04/02 09:45:59;;;;;;;9.55;3.42;;;;;;;-146.04;100.00;56920.13;4915826;29;20268;-71
2024/04/02 09:48:26;;;;;;;8.55;2.83;;;;;;;-146.04;100.00;56920.13;4919140;29;20776;-72
2024/04/02 09:50:52;;;;;;;7.40;2.83;;;;;;;-146.04;100.00;56920.13;4917667;29;20240;-71
2024/04/02 09:53:20;;;;;;;12.70;2.78;;;;;;;-146.04;100.00;56920.13;4917818;29;20214;-72
2024/04/02 09:55:48;;;;;;;7.47;2.95;;;;;;;-146.04;100.00;56920.13;4919998;29;20253;-72
2024/04/02 09:58:15;;;;;;;10.63;3.97;;;;;;;-146.04;100.00;56920.13;4920948;29;20717;-70
2024/04/02 10:00:46;;;;;;;12.13;3.22;;;;;;;-146.04;100.00;56920.13;4920620;29;20198;-71
2024/04/02 10:03:13;;;;;;;9.25;4.03;;;;;;;-146.04;100.00;56920.13;4919577;29;20700;-72
2024/04/02 10:05:38;;;;;;;8.63;3.17;;;;;;;-146.04;100.00;56920.13;4917530;29;20198;-72
2024/04/02 10:08:07;;;;;;;10.48;4.05;;;;;;;-146.04;100.00;56920.13;4918053;29;20222;-72
2024/04/02 10:10:37;;;;;;;7.05;2.92;;;;;;;-146.04;100.00;56920.13;4918851;29;20217;-71
2024/04/02 10:13:06;;;;;;;9.52;3.67;;;;;;;-146.04;100.00;56920.13;4919334;29;20197;-72
2024/04/02 10:15:31;;;;;;;5.53;3.10;;;;;;;-146.04;100.00;56920.13;4917734;29;20217;-72
2024/04/02 10:17:58;;;;;;;7.65;3.67;;;;;;;-146.04;100.00;56920.13;4917314;29;20336;-72
2024/04/02 10:20:26;;;;;;;9.45;2.97;;;;;;;-146.04;100.00;56920.13;4919830;29;20186;-72
2024/04/02 10:22:53;;;;;;;6.78;3.17;;;;;;;-146.04;100.00;56920.13;4918832;29;20197;-72
2024/04/02 10:25:19;;;;;;;12.75;3.85;;;;;;;-146.04;100.00;56920.13;4919291;29;20201;-72
2024/04/02 10:27:47;;;;;;;6.85;3.25;;;;;;;-146.04;100.00;56920.13;4917615;29;20246;-72
2024/04/02 10:30:27;;;;;;;8.50;3.40;;;;;;;-146.04;100.00;56920.13;4915900;29;20197;-72
2024/04/02 10:32:56;;;;;;;9.00;3.28;;;;;;;-146.04;100.00;56920.13;4917164;29;20197;-72
2024/04/02 10:35:26;;;;;;;6.03;2.70;;;;;;;-146.04;100.00;56920.13;4916372;29;20567;-72
2024/04/02 10:37:55;;;;;;;8.52;3.03;;;;;;;-146.04;100.00;56920.13;4918546;29;20217;-72
2024/04/02 10:40:20;;;;;;;10.25;3.40;;;;;;;-146.04;100.00;56920.13;4928687;28;20198;-72
2024/04/02 10:42:47;;;;;;;11.07;3.33;;;;;;;-146.04;100.00;56920.13;4916178;29;20627;-72
2024/04/02 10:45:17;;;;;;;4.22;3.10;;;;;;;-146.04;100.00;56920.13;4918189;29;20351;-73
2024/04/02 10:47:50;;;;;;;7.07;3.65;;;;;;;-146.04;100.00;56920.13;4918618;29;20289;-72
2024/04/02 10:50:17;;;;;;;7.10;3.30;;;;;;;-146.04;100.00;56920.13;4930774;29;20194;-73
2024/04/02 10:52:43;;;;;;;7.05;2.95;;;;;;;-146.04;100.00;56920.13;4915605;29;20213;-73
2024/04/02 10:55:09;;;;;;;7.07;3.72;;;;;;;-146.04;100.00;56920.13;4917375;29;20542;-72
2024/04/02 10:57:36;;;;;;;5.22;3.50;;;;;;;-146.04;100.00;56920.13;4914628;29;20366;-73
2024/04/02 11:00:04;;;;;;;10.20;4.10;;;;;;;-146.04;100.00;56920.13;4917767;29;20685;-73
2024/04/02 11:02:31;;;;;;;11.32;3.45;;;;;;;-146.04;100.00;56920.13;4916824;29;20188;-73
2024/04/02 11:04:57;;;;;;;5.95;3.47;;;;;;;-146.04;100.00;56920.13;4915924;29;20217;-73